Time;durP1;ratioP1;P1;durP2;ratioP2;P2;SDS_P1;SDS_P2;PMS_P1;PMS_P2;Temp;Humidity;BMP_temperature;BMP_pressure;BME280_temperature;BME280_humidity;BME280_pressure;Samples;Min_cycle;Max_cycle;Signal;HPM_P1;HPM_P2
2022/12/24 00:03:56;;;;;;;54.33;6.55;;;10.60;99.90;;;;;;10505352;28;20043;-26
2022/12/24 00:08:57;;;;;;;45.08;6.53;;;10.50;99.90;;;;;;10514065;28;20040;-25
2022/12/24 00:13:59;;;;;;;40.42;5.40;;;10.50;99.90;;;;;;10511299;28;20471;-25
2022/12/24 00:19:02;;;;;;;39.95;6.03;;;10.50;99.90;;;;;;10498091;28;20087;-25
2022/12/24 00:24:05;;;;;;;38.63;5.57;;;10.40;99.90;;;;;;10482320;28;20048;-25
2022/12/24 00:29:07;;;;;;;44.90;5.70;;;10.70;99.90;;;;;;10497261;28;20127;-25
2022/12/24 00:34:10;;;;;;;43.80;5.70;;;10.50;99.90;;;;;;10506901;28;20049;-26
2022/12/24 00:39:12;;;;;;;27.85;4.68;;;10.20;99.90;;;;;;10487266;28;20045;-27
2022/12/24 00:44:14;;;;;;;29.85;5.15;;;10.50;99.90;;;;;;10491827;28;20068;-25
2022/12/24 00:49:17;;;;;;;48.53;5.07;;;10.60;99.90;;;;;;10490454;28;20440;-25
2022/12/24 00:54:19;;;;;;;48.25;5.85;;;10.60;99.90;;;;;;10488256;28;20099;-25
2022/12/24 00:59:21;;;;;;;43.60;5.57;;;10.60;99.90;;;;;;10495893;28;20045;-25
2022/12/24 01:09:43;;;;;;;40.42;6.07;;;11.00;99.90;;;;;;10485459;28;20808;-25
2022/12/24 01:14:45;;;;;;;34.50;5.57;;;10.50;99.90;;;;;;10481804;28;20060;-27
2022/12/24 01:19:48;;;;;;;28.30;4.63;;;10.60;99.90;;;;;;10500777;28;20155;-24
2022/12/24 01:24:50;;;;;;;27.90;4.22;;;10.50;99.90;;;;;;10488858;28;20101;-25
2022/12/24 01:29:52;;;;;;;55.97;5.15;;;11.00;99.90;;;;;;10493039;28;20057;-26
2022/12/24 01:34:55;;;;;;;42.22;5.65;;;10.30;99.90;;;;;;10509258;28;20059;-25
2022/12/24 01:45:40;;;;;;;41.90;6.75;;;10.30;99.90;;;;;;10475782;28;20041;-26
2022/12/24 01:50:44;;;;;;;26.92;3.92;;;10.30;99.90;;;;;;10504330;28;20051;-25
2022/12/24 01:55:47;;;;;;;32.53;3.88;;;10.70;99.90;;;;;;10489009;28;20159;-26
2022/12/24 02:00:49;;;;;;;;;;;10.10;99.90;;;;;;10491182;28;20052;-26
2022/12/24 02:05:54;;;;;;;23.42;3.38;;;10.70;99.90;;;;;;10480957;28;19971;-26
2022/12/24 02:10:56;;;;;;;25.92;3.30;;;10.80;99.90;;;;;;10491121;28;20058;-22
2022/12/24 02:16:06;;;;;;;23.07;5.17;;;11.50;99.90;;;;;;10490279;28;20377;-25
2022/12/24 02:21:53;;;;;;;44.72;6.38;;;11.60;99.90;;;;;;10499473;28;20088;-25
2022/12/24 02:27:12;;;;;;;46.85;6.82;;;10.60;99.90;;;;;;10472053;28;20581;-28
2022/12/24 02:32:22;;;;;;;42.03;6.50;;;10.30;99.90;;;;;;10478158;28;20048;-25
2022/12/24 02:37:27;;;;;;;48.17;7.32;;;11.20;99.90;;;;;;10492191;28;20084;-26
2022/12/24 02:42:35;;;;;;;65.93;8.55;;;10.40;99.90;;;;;;10469557;28;20148;-27
2022/12/24 02:47:40;;;;;;;54.13;5.43;;;10.20;99.90;;;;;;10476690;28;20047;-25
2022/12/24 02:52:45;;;;;;;35.35;4.82;;;10.90;99.90;;;;;;10494002;28;20053;-24
2022/12/24 02:58:06;;;;;;;33.42;5.03;;;10.90;99.90;;;;;;10496833;28;20079;-25
2022/12/24 03:03:24;;;;;;;45.92;6.32;;;10.60;99.90;;;;;;10486845;28;20102;-26
2022/12/24 03:08:38;;;;;;;45.78;6.55;;;10.30;99.90;;;;;;10492479;28;20099;-26
2022/12/24 03:13:41;;;;;;;23.00;4.65;;;10.30;99.90;;;;;;10498712;28;20441;-28
2022/12/24 03:18:47;;;;;;;32.95;6.70;;;10.70;99.90;;;;;;10489618;28;20052;-24
2022/12/24 03:23:49;;;;;;;36.22;4.78;;;11.10;99.90;;;;;;10480965;28;20485;-24
2022/12/24 03:28:51;;;;;;;45.43;5.93;;;11.10;99.90;;;;;;10484771;28;20512;-25
2022/12/24 03:33:54;;;;;;;48.17;5.35;;;11.30;99.90;;;;;;10496382;28;20783;-25
2022/12/24 03:38:56;;;;;;;39.75;6.30;;;10.50;99.90;;;;;;10508933;28;20107;-29
2022/12/24 03:43:58;;;;;;;30.40;5.22;;;11.00;99.90;;;;;;10468651;28;20409;-24
2022/12/24 03:49:01;;;;;;;38.92;4.65;;;11.00;99.90;;;;;;10480437;28;20125;-25
2022/12/24 03:54:03;;;;;;;32.25;5.38;;;11.20;99.90;;;;;;10486193;28;20049;-27
2022/12/24 03:59:05;;;;;;;33.80;4.53;;;10.90;99.90;;;;;;10500318;28;20094;-25
2022/12/24 04:04:08;;;;;;;39.38;4.93;;;11.50;99.90;;;;;;10510106;28;20040;-24
2022/12/24 04:09:10;;;;;;;33.05;5.60;;;11.00;99.90;;;;;;10499135;28;20076;-25
2022/12/24 04:14:12;;;;;;;31.42;4.10;;;11.30;99.90;;;;;;10504907;28;20082;-25
2022/12/24 04:19:16;;;;;;;41.70;6.60;;;10.90;99.90;;;;;;10485621;28;20139;-24
2022/12/24 04:24:18;;;;;;;54.90;5.97;;;10.80;99.90;;;;;;10503908;28;20045;-24
2022/12/24 04:29:20;;;;;;;27.73;4.10;;;10.60;99.90;;;;;;10500792;28;20052;-26
2022/12/24 04:34:23;;;;;;;28.40;3.92;;;11.00;99.90;;;;;;10488302;28;20045;-25
2022/12/24 04:39:25;;;;;;;27.92;3.90;;;11.20;99.90;;;;;;10497635;28;20088;-26
2022/12/24 04:44:26;;;;;;;55.38;6.13;;;11.30;99.90;;;;;;10491711;28;20051;-25
2022/12/24 04:49:30;;;;;;;47.00;6.90;;;11.80;99.90;;;;;;10508741;28;20078;-27
2022/12/24 04:54:31;;;;;;;46.00;6.03;;;10.90;99.90;;;;;;10480953;28;20037;-26
2022/12/24 04:59:33;;;;;;;27.55;4.22;;;11.00;99.90;;;;;;10493765;28;20137;-24
2022/12/24 05:04:37;;;;;;;44.28;5.05;;;11.60;99.90;;;;;;10490978;28;20466;-25
2022/12/24 05:09:38;;;;;;;38.65;6.13;;;11.10;99.90;;;;;;10475487;28;20139;-25
2022/12/24 05:14:40;;;;;;;48.22;6.78;;;10.90;99.90;;;;;;10485904;28;20482;-24
2022/12/24 05:19:43;;;;;;;35.08;5.30;;;10.80;99.90;;;;;;10498716;28;20424;-25
2022/12/24 05:30:06;;;;;;;43.65;7.72;;;11.30;99.90;;;;;;10491321;28;20053;-24
2022/12/24 05:35:09;;;;;;;48.55;5.72;;;11.20;99.90;;;;;;10474965;28;20102;-29
2022/12/24 05:40:12;;;;;;;63.00;8.30;;;10.80;99.90;;;;;;10500002;28;20173;-24
2022/12/24 05:45:13;;;;;;;51.73;9.50;;;10.70;99.90;;;;;;10489158;28;20127;-28
2022/12/24 05:50:17;;;;;;;38.58;6.15;;;10.80;99.90;;;;;;10482284;28;20063;-25
2022/12/24 05:55:18;;;;;;;48.75;6.07;;;11.20;99.90;;;;;;10478104;28;20485;-25
2022/12/24 06:00:21;;;;;;;57.90;9.23;;;11.10;99.90;;;;;;10501232;28;20083;-27
2022/12/24 06:05:24;;;;;;;62.00;7.17;;;10.50;99.90;;;;;;10509042;28;20091;-26
2022/12/24 06:10:26;;;;;;;;;;;10.50;99.90;;;;;;10489715;28;20511;-25
2022/12/24 06:15:27;;;;;;;54.20;7.72;;;11.20;99.90;;;;;;10512376;28;19926;-25
2022/12/24 06:20:31;;;;;;;56.92;7.63;;;10.70;99.90;;;;;;10485631;28;20397;-25
2022/12/24 06:25:32;;;;;;;51.45;6.28;;;10.90;99.90;;;;;;10482368;28;20076;-25
2022/12/24 06:30:34;;;;;;;58.40;7.80;;;10.80;99.90;;;;;;10478125;28;20095;-25
2022/12/24 06:35:38;;;;;;;77.43;8.32;;;10.50;99.90;;;;;;10489241;28;20092;-25
2022/12/24 06:40:40;;;;;;;32.92;4.25;;;10.30;99.90;;;;;;10485340;28;20089;-25
2022/12/24 06:45:45;;;;;;;58.15;7.18;;;10.50;99.90;;;;;;10501058;28;20064;-25
2022/12/24 06:50:49;;;;;;;47.42;8.07;;;10.10;99.90;;;;;;10489022;28;20114;-27
2022/12/24 06:55:51;;;;;;;54.75;6.07;;;10.60;99.90;;;;;;10492319;28;20056;-25
2022/12/24 07:00:52;;;;;;;35.47;4.93;;;10.20;99.90;;;;;;10498326;28;20049;-26
2022/12/24 07:15:30;;;;;;;41.33;5.45;;;10.90;99.90;;;;;;10545558;27;20125;-25
2022/12/24 07:20:32;;;;;;;;;;;10.50;99.90;;;;;;10519204;28;20444;-25
2022/12/24 07:25:34;;;;;;;46.38;5.07;;;10.30;99.90;;;;;;10527267;28;20009;-26
2022/12/24 07:30:37;;;;;;;68.35;7.28;;;10.90;99.90;;;;;;10533079;28;20416;-25
2022/12/24 07:35:39;;;;;;;26.85;4.25;;;10.50;99.90;;;;;;10502948;28;20052;-25
2022/12/24 07:40:41;;;;;;;36.55;3.65;;;10.30;99.90;;;;;;10527239;28;20127;-24
2022/12/24 07:45:44;;;;;;;36.20;4.45;;;10.20;99.90;;;;;;10521190;28;20484;-25
2022/12/24 07:50:49;;;;;;;49.15;5.80;;;10.70;99.90;;;;;;10518199;28;20041;-24
2022/12/24 07:55:51;;;;;;;90.40;9.18;;;10.30;99.90;;;;;;10526686;28;20064;-26
2022/12/24 08:00:57;;;;;;;58.67;7.97;;;10.00;99.90;;;;;;10497092;28;20094;-28
2022/12/24 08:05:59;;;;;;;57.75;6.78;;;10.90;99.90;;;;;;10511043;28;20049;-25
2022/12/24 08:11:02;;;;;;;36.95;7.95;;;10.60;99.90;;;;;;10520469;28;20056;-24
2022/12/24 08:16:06;;;;;;;;;;;10.30;99.90;;;;;;10530700;28;20507;-27
2022/12/24 08:21:08;;;;;;;46.70;6.85;;;10.40;99.90;;;;;;10521482;28;19946;-22
2022/12/24 08:26:10;;;;;;;33.70;6.53;;;10.90;99.90;;;;;;10488850;28;20072;-25
2022/12/24 08:31:14;;;;;;;54.33;6.40;;;10.70;99.90;;;;;;10484796;28;20085;-25
2022/12/24 08:36:16;;;;;;;49.67;7.13;;;10.60;99.90;;;;;;10498940;28;20478;-24
2022/12/24 08:41:18;;;;;;;57.33;7.00;;;11.00;99.90;;;;;;10491827;28;20458;-26
2022/12/24 08:46:21;;;;;;;48.30;6.13;;;10.50;99.90;;;;;;10498812;28;20040;-24
2022/12/24 08:51:23;;;;;;;74.40;7.72;;;10.80;99.90;;;;;;10495138;28;20041;-24
2022/12/24 08:56:25;;;;;;;27.13;4.85;;;11.30;99.90;;;;;;10479001;28;20839;-25
2022/12/24 09:01:28;;;;;;;29.77;4.43;;;12.30;99.90;;;;;;10476520;28;20049;-25
2022/12/24 09:06:32;;;;;;;36.95;5.28;;;12.20;99.90;;;;;;10472608;28;20473;-24
2022/12/24 09:11:35;;;;;;;40.97;6.32;;;11.30;99.90;;;;;;10483787;28;20060;-27
2022/12/24 09:16:38;;;;;;;39.28;5.80;;;11.00;99.90;;;;;;10496983;28;20075;-25
2022/12/24 09:21:40;;;;;;;36.15;5.53;;;10.90;99.90;;;;;;10473705;28;20076;-26
2022/12/24 09:26:42;;;;;;;41.45;4.75;;;11.10;99.90;;;;;;10490731;28;20098;-25
2022/12/24 09:31:45;;;;;;;34.23;5.40;;;11.70;99.90;;;;;;10482886;28;20056;-28
2022/12/24 09:36:47;;;;;;;38.97;5.72;;;11.70;99.90;;;;;;10492136;28;20102;-26
2022/12/24 09:42:00;;;;;;;25.75;3.55;;;11.50;99.90;;;;;;10470151;28;20141;-27
2022/12/24 09:47:11;;;;;;;47.97;7.05;;;12.30;99.90;;;;;;10479525;28;20052;-25
2022/12/24 09:52:21;;;;;;;39.50;5.30;;;11.20;99.90;;;;;;10479351;28;20041;-25
2022/12/24 09:57:28;;;;;;;32.92;4.78;;;11.60;99.90;;;;;;10467662;28;20045;-24
2022/12/24 10:02:32;;;;;;;31.15;3.65;;;11.40;99.90;;;;;;10472124;28;20083;-26
2022/12/24 10:07:43;;;;;;;38.67;5.10;;;11.70;99.90;;;;;;10510621;28;20123;-25
2022/12/24 10:12:51;;;;;;;23.17;4.35;;;11.00;99.90;;;;;;10493675;28;20067;-25
2022/12/24 10:18:05;;;;;;;40.92;5.45;;;12.90;99.90;;;;;;10483036;28;20045;-24
2022/12/24 10:23:15;;;;;;;29.63;6.13;;;12.00;99.90;;;;;;10471998;28;20047;-24
2022/12/24 10:28:19;;;;;;;46.47;5.10;;;11.70;99.90;;;;;;10478877;28;20083;-25
2022/12/24 10:33:30;;;;;;;22.88;4.05;;;11.90;99.90;;;;;;10480611;28;20449;-25
2022/12/24 10:38:32;;;;;;;41.08;4.75;;;11.50;99.90;;;;;;10481986;28;20040;-25
2022/12/24 10:43:38;;;;;;;32.65;4.68;;;11.60;99.90;;;;;;10459266;28;20045;-25
2022/12/24 10:48:48;;;;;;;31.77;5.05;;;12.10;99.90;;;;;;10499753;28;20052;-25
2022/12/24 10:53:56;;;;;;;42.03;6.63;;;11.60;99.90;;;;;;10499119;28;20094;-25
2022/12/24 10:58:58;;;;;;;43.75;6.65;;;12.10;99.90;;;;;;10472442;28;20393;-25
2022/12/24 11:04:03;;;;;;;22.25;3.40;;;11.90;99.90;;;;;;10479397;28;20156;-24
2022/12/24 11:09:20;;;;;;;38.80;5.22;;;11.90;99.90;;;;;;10483533;28;20076;-25
2022/12/24 11:14:22;;;;;;;26.95;3.92;;;11.40;99.90;;;;;;10481011;28;20052;-27
2022/12/24 11:19:31;;;;;;;23.37;3.70;;;12.10;99.90;;;;;;10496159;28;20729;-25
2022/12/24 11:24:35;;;;;;;28.65;4.15;;;11.10;99.90;;;;;;10484916;28;20148;-25
2022/12/24 11:29:37;;;;;;;47.30;5.35;;;12.50;99.90;;;;;;10470483;28;20406;-25
2022/12/24 11:34:43;;;;;;;20.37;4.60;;;11.90;99.90;;;;;;10479409;28;20087;-27
2022/12/24 11:39:48;;;;;;;27.52;5.15;;;11.70;99.90;;;;;;10507780;28;20076;-27
2022/12/24 11:44:51;;;;;;;44.92;5.07;;;11.60;99.90;;;;;;10502197;28;20040;-23
2022/12/24 11:49:54;;;;;;;41.53;6.38;;;11.50;99.90;;;;;;10495446;28;20044;-24
2022/12/24 11:55:14;;;;;;;53.10;4.68;;;12.30;99.90;;;;;;10472654;28;20071;-26
2022/12/24 12:00:17;;;;;;;25.08;4.82;;;12.20;99.90;;;;;;10470825;28;20118;-24
2022/12/24 12:05:24;;;;;;;34.80;5.40;;;12.30;99.90;;;;;;10478500;28;20122;-25
2022/12/24 12:10:30;;;;;;;21.52;3.22;;;11.60;99.90;;;;;;10476297;28;20266;-27
2022/12/24 12:15:35;;;;;;;29.05;4.97;;;11.30;99.90;;;;;;10463874;28;20053;-25
2022/12/24 12:20:42;;;;;;;26.48;3.35;;;11.80;99.90;;;;;;10482869;28;20543;-24
2022/12/24 12:25:47;;;;;;;35.90;4.05;;;11.60;99.90;;;;;;10493242;28;20869;-25
2022/12/24 12:31:00;;;;;;;25.55;3.75;;;11.10;99.90;;;;;;10492422;28;20109;-27
2022/12/24 12:36:04;;;;;;;18.02;2.75;;;11.80;99.90;;;;;;10486845;28;20155;-25
2022/12/24 12:41:29;;;;;;;21.67;3.78;;;12.10;99.90;;;;;;10470085;28;20083;-25
2022/12/24 12:46:39;;;;;;;15.45;3.38;;;12.40;99.90;;;;;;10490997;28;20052;-24
2022/12/24 12:51:48;;;;;;;42.10;5.43;;;12.00;99.90;;;;;;10480593;28;20049;-26
2022/12/24 12:56:55;;;;;;;17.33;2.75;;;12.00;99.90;;;;;;10488139;28;20545;-26
2022/12/24 13:02:09;;;;;;;37.13;5.10;;;11.90;99.90;;;;;;10479663;28;20492;-25
2022/12/24 13:07:34;;;;;;;10.35;2.03;;;11.80;99.90;;;;;;10482742;28;20512;-27
2022/12/24 13:12:56;;;;;;;32.15;5.10;;;12.70;99.90;;;;;;10481544;28;20095;-27
2022/12/24 13:18:21;;;;;;;12.55;3.17;;;12.90;99.70;;;;;;10483599;28;20125;-24
2022/12/24 13:23:26;;;;;;;24.95;3.22;;;12.70;99.90;;;;;;10486663;28;20071;-25
2022/12/24 13:28:34;;;;;;;20.88;3.72;;;12.60;99.90;;;;;;10490277;28;20036;-25
2022/12/24 13:33:49;;;;;;;22.13;4.57;;;12.80;99.90;;;;;;10488030;28;20147;-26
2022/12/24 13:38:55;;;;;;;19.00;3.33;;;12.90;99.90;;;;;;10486756;28;20076;-25
2022/12/24 13:44:04;;;;;;;29.58;4.20;;;12.60;99.90;;;;;;10484596;28;20097;-25
2022/12/24 13:49:12;;;;;;;14.60;2.45;;;12.70;99.90;;;;;;10486411;28;20082;-25
2022/12/24 13:54:24;;;;;;;31.80;3.63;;;13.40;98.10;;;;;;10481945;28;20828;-25
2022/12/24 13:59:36;;;;;;;33.00;6.10;;;13.40;98.70;;;;;;10475730;28;20106;-25
2022/12/24 14:04:41;;;;;;;41.30;5.78;;;13.30;99.60;;;;;;10476662;28;20124;-26
2022/12/24 14:09:49;;;;;;;25.90;4.40;;;13.20;99.90;;;;;;10493171;28;20051;-27
2022/12/24 14:14:51;;;;;;;40.53;5.80;;;13.20;99.90;;;;;;10483761;28;20067;-26
2022/12/24 14:19:55;;;;;;;42.08;6.85;;;13.60;99.40;;;;;;10485076;28;20102;-26
2022/12/24 14:25:01;;;;;;;52.97;6.43;;;13.20;99.90;;;;;;10493287;28;20109;-24
2022/12/24 14:30:07;;;;;;;33.42;5.95;;;12.70;99.90;;;;;;10498590;28;20076;-25
2022/12/24 14:35:15;;;;;;;45.33;6.00;;;13.20;99.90;;;;;;10491798;28;20048;-26
2022/12/24 14:40:21;;;;;;;29.58;4.68;;;13.20;99.90;;;;;;10492055;28;20049;-25
2022/12/24 14:45:31;;;;;;;33.08;4.93;;;13.20;99.90;;;;;;10488151;28;20068;-23
2022/12/24 14:50:57;;;;;;;28.30;4.93;;;12.50;99.90;;;;;;10472141;28;20410;-25
2022/12/24 14:56:13;;;;;;;25.95;4.18;;;12.70;99.90;;;;;;10491734;28;20051;-25
2022/12/24 15:01:21;;;;;;;36.90;5.03;;;12.10;99.90;;;;;;10490014;28;20075;-24
2022/12/24 15:06:23;;;;;;;39.97;5.93;;;12.30;99.90;;;;;;10479842;28;20060;-24
2022/12/24 15:11:26;;;;;;;34.55;4.75;;;11.80;99.90;;;;;;10485247;28;20128;-26
2022/12/24 15:16:30;;;;;;;23.42;4.45;;;12.60;99.90;;;;;;10490939;28;20142;-25
2022/12/24 15:21:36;;;;;;;22.20;3.75;;;13.30;99.90;;;;;;10493618;28;20044;-25
2022/12/24 15:26:44;;;;;;;33.10;6.30;;;13.00;99.90;;;;;;10481881;28;20044;-24
2022/12/24 15:31:51;;;;;;;40.47;5.13;;;12.60;99.90;;;;;;10481402;28;20745;-26
2022/12/24 15:37:02;;;;;;;39.85;5.97;;;12.00;99.90;;;;;;10492658;28;20095;-25
2022/12/24 15:42:16;;;;;;;19.40;3.40;;;12.60;99.90;;;;;;10500373;28;20138;-25
2022/12/24 15:47:23;;;;;;;9.80;2.38;;;13.70;98.70;;;;;;10492388;28;20045;-26
2022/12/24 15:52:26;;;;;;;17.80;3.05;;;14.50;95.10;;;;;;10487923;28;20079;-25
2022/12/24 15:57:33;;;;;;;8.77;2.53;;;14.90;92.00;;;;;;10495603;28;20486;-26
2022/12/24 16:02:37;;;;;;;6.80;2.20;;;15.40;88.80;;;;;;10490203;28;20131;-26
2022/12/24 16:08:05;;;;;;;7.75;2.28;;;15.90;82.00;;;;;;10487229;28;20068;-27
2022/12/24 16:13:18;;;;;;;10.20;1.90;;;16.00;81.90;;;;;;10493707;28;20481;-25
2022/12/24 16:18:24;;;;;;;51.95;9.10;;;15.90;84.50;;;;;;10482566;28;20095;-25
2022/12/24 16:23:32;;;;;;;17.02;3.25;;;14.10;94.10;;;;;;10480170;28;20546;-25
2022/12/24 16:28:35;;;;;;;9.18;2.85;;;14.30;94.30;;;;;;10476857;28;20126;-25
2022/12/24 16:33:37;;;;;;;14.45;3.45;;;14.10;95.00;;;;;;10475404;28;20044;-24
2022/12/24 16:43:56;;;;;;;9.18;2.00;;;15.50;88.20;;;;;;10483528;28;20056;-26
2022/12/24 16:48:58;;;;;;;8.70;2.08;;;15.60;84.10;;;;;;10491355;28;20101;-25
2022/12/24 16:54:00;;;;;;;4.80;1.70;;;15.80;83.40;;;;;;10483431;28;20048;-25
2022/12/24 16:59:03;;;;;;;7.97;2.27;;;16.10;80.30;;;;;;10489229;28;20049;-25
2022/12/24 17:04:05;;;;;;;8.82;1.92;;;15.90;80.70;;;;;;10491720;28;20498;-25
2022/12/24 17:09:09;;;;;;;28.92;4.80;;;16.10;79.00;;;;;;10495586;28;20048;-26
2022/12/24 17:14:12;;;;;;;11.27;1.70;;;15.70;85.00;;;;;;10501775;28;20152;-25
2022/12/24 17:19:14;;;;;;;5.53;1.70;;;15.70;84.90;;;;;;10500104;28;20079;-26
2022/12/24 17:24:16;;;;;;;17.30;4.70;;;16.00;80.00;;;;;;10494491;28;20098;-23
2022/12/24 17:29:20;;;;;;;8.32;1.65;;;16.10;78.20;;;;;;10488624;28;20137;-26
2022/12/24 17:34:22;;;;;;;9.40;2.00;;;16.40;75.50;;;;;;10502885;28;20088;-24
2022/12/24 17:39:24;;;;;;;10.07;2.28;;;16.40;74.90;;;;;;10488172;28;20122;-25
2022/12/24 17:44:27;;;;;;;8.32;2.15;;;16.40;74.80;;;;;;10497129;28;20129;-25
2022/12/24 17:49:29;;;;;;;8.30;2.03;;;16.40;74.80;;;;;;10490708;28;20044;-28
2022/12/24 17:54:31;;;;;;;8.80;2.07;;;16.40;75.00;;;;;;10484411;28;20084;-27
2022/12/24 17:59:35;;;;;;;12.82;2.53;;;16.30;74.80;;;;;;10483885;28;20067;-23
2022/12/24 18:04:36;;;;;;;9.13;2.25;;;16.20;76.60;;;;;;10474146;28;20128;-24
2022/12/24 18:09:38;;;;;;;7.40;2.10;;;15.90;78.90;;;;;;10482070;28;20131;-24
2022/12/24 18:14:42;;;;;;;8.38;2.53;;;15.90;78.20;;;;;;10490874;28;20060;-28
2022/12/24 18:19:43;;;;;;;5.95;1.77;;;16.30;75.40;;;;;;10483741;28;20052;-24
2022/12/24 18:24:45;;;;;;;7.30;1.80;;;16.30;74.70;;;;;;10492429;28;20048;-24
2022/12/24 18:29:49;;;;;;;7.77;2.07;;;16.20;76.00;;;;;;10496875;28;20132;-25
2022/12/24 18:34:51;;;;;;;7.88;1.85;;;16.30;75.50;;;;;;10493529;28;20056;-26
2022/12/24 18:39:53;;;;;;;9.88;2.42;;;16.20;75.20;;;;;;10500244;28;20044;-23
2022/12/24 18:44:57;;;;;;;5.32;1.67;;;16.20;75.10;;;;;;10474874;28;20158;-24
2022/12/24 18:49:58;;;;;;;7.60;1.98;;;16.30;74.40;;;;;;10503480;28;20160;-25
2022/12/24 18:55:00;;;;;;;4.80;1.80;;;16.30;74.40;;;;;;10501034;28;20048;-27
2022/12/24 19:00:04;;;;;;;5.80;1.87;;;16.40;73.60;;;;;;10494217;28;20041;-24
2022/12/24 19:05:07;;;;;;;4.97;1.63;;;16.40;73.20;;;;;;10482396;28;20128;-25
2022/12/24 19:10:10;;;;;;;6.40;2.45;;;16.20;74.50;;;;;;10486216;28;20520;-29
2022/12/24 19:15:13;;;;;;;7.40;2.15;;;16.30;74.00;;;;;;10477313;28;20090;-25
2022/12/24 19:20:15;;;;;;;5.97;1.77;;;16.30;73.70;;;;;;10491189;28;20796;-24
2022/12/24 19:25:17;;;;;;;8.23;2.20;;;16.30;73.60;;;;;;10486321;28;20072;-25
2022/12/24 19:30:21;;;;;;;4.10;1.85;;;16.10;74.80;;;;;;10475762;28;20135;-26
2022/12/24 19:35:22;;;;;;;7.40;2.50;;;16.30;74.20;;;;;;10479353;28;20101;-25
2022/12/24 19:40:25;;;;;;;12.13;2.70;;;16.20;74.30;;;;;;10488921;28;20068;-25
2022/12/24 19:45:28;;;;;;;6.50;1.63;;;16.20;74.00;;;;;;10476339;28;20041;-24
2022/12/24 19:50:30;;;;;;;7.32;1.88;;;16.30;73.30;;;;;;10483980;28;20139;-25
2022/12/24 19:55:31;;;;;;;8.80;2.30;;;16.30;72.90;;;;;;10478936;28;20080;-24
2022/12/24 20:00:35;;;;;;;6.30;1.83;;;16.40;72.80;;;;;;10491923;28;20068;-27
2022/12/24 20:05:40;;;;;;;8.20;2.33;;;16.40;72.50;;;;;;10493405;28;20068;-25
2022/12/24 20:10:43;;;;;;;6.03;2.10;;;16.40;72.50;;;;;;10475699;28;20133;-26
2022/12/24 20:15:46;;;;;;;4.47;1.90;;;16.40;72.10;;;;;;10488852;28;20057;-24
2022/12/24 20:20:48;;;;;;;5.20;2.15;;;16.40;71.90;;;;;;10479448;28;20105;-24
2022/12/24 20:25:56;;;;;;;6.22;2.30;;;16.40;71.70;;;;;;10481455;28;20080;-25
2022/12/24 20:31:00;;;;;;;6.32;2.42;;;16.40;71.80;;;;;;10487723;28;20043;-24
2022/12/24 20:36:02;;;;;;;10.75;2.75;;;16.40;71.70;;;;;;10491294;28;20453;-25
2022/12/24 20:41:08;;;;;;;9.70;2.15;;;16.30;72.60;;;;;;10501456;28;20068;-25
2022/12/24 20:46:11;;;;;;;12.48;3.33;;;16.30;72.00;;;;;;10489564;28;20109;-25
2022/12/24 20:51:15;;;;;;;6.90;1.67;;;16.30;72.00;;;;;;10475338;28;20087;-24
2022/12/24 20:56:18;;;;;;;8.10;2.25;;;16.30;72.00;;;;;;10487687;28;20059;-25
2022/12/24 21:01:23;;;;;;;5.80;2.00;;;16.30;72.20;;;;;;10478329;28;20107;-25
2022/12/24 21:06:25;;;;;;;6.70;2.13;;;16.30;71.70;;;;;;10476883;28;20139;-25
2022/12/24 21:16:49;;;;;;;7.65;2.47;;;16.20;72.30;;;;;;10486807;28;20142;-25
2022/12/24 21:21:51;;;;;;;6.13;1.85;;;16.00;75.00;;;;;;10498423;28;20049;-26
2022/12/24 21:26:54;;;;;;;7.47;2.35;;;16.00;74.50;;;;;;10482583;28;20076;-25
2022/12/24 21:31:57;;;;;;;6.93;2.55;;;16.00;74.60;;;;;;10484257;28;20145;-25
2022/12/24 21:36:58;;;;;;;5.30;1.60;;;16.10;73.30;;;;;;10497604;28;20110;-29
2022/12/24 21:42:00;;;;;;;4.18;1.95;;;16.20;72.30;;;;;;10473953;28;20474;-26
2022/12/24 21:47:04;;;;;;;10.03;3.43;;;16.20;72.90;;;;;;10482893;28;20040;-25
2022/12/24 21:52:06;;;;;;;5.45;2.40;;;16.30;71.90;;;;;;10472988;28;20483;-27
2022/12/24 22:02:29;;;;;;;5.93;2.55;;;16.20;71.80;;;;;;10500478;28;20048;-22
2022/12/24 22:12:50;;;;;;;5.80;2.13;;;16.20;72.10;;;;;;10488646;28;20056;-26
2022/12/24 22:17:53;;;;;;;7.83;2.23;;;16.20;72.40;;;;;;10483078;28;20054;-24
2022/12/24 22:22:55;;;;;;;6.25;2.38;;;16.20;72.20;;;;;;10475652;28;20052;-26
2022/12/24 22:27:57;;;;;;;18.40;3.57;;;15.90;73.80;;;;;;10508242;28;20113;-25
2022/12/24 22:33:00;;;;;;;12.15;4.05;;;15.50;77.70;;;;;;10488600;28;20087;-25
2022/12/24 22:38:03;;;;;;;9.32;3.65;;;15.40;80.70;;;;;;10509815;28;20072;-25
2022/12/24 22:43:05;;;;;;;8.68;1.98;;;15.40;79.00;;;;;;10484683;28;20056;-26
2022/12/24 22:48:09;;;;;;;4.87;2.17;;;15.30;80.10;;;;;;10465742;28;20049;-27
2022/12/24 22:53:11;;;;;;;10.80;4.40;;;14.30;89.90;;;;;;10498729;28;20143;-25
2022/12/24 22:58:12;;;;;;;11.60;3.03;;;15.00;81.90;;;;;;10483158;28;20068;-24
2022/12/24 23:03:15;;;;;;;7.33;2.97;;;15.20;80.80;;;;;;10498636;28;20098;-28
2022/12/24 23:08:17;;;;;;;5.38;2.10;;;15.50;78.00;;;;;;10486701;28;20560;-26
2022/12/24 23:18:40;;;;;;;7.55;2.28;;;14.60;88.60;;;;;;10484180;28;20155;-27
2022/12/24 23:23:42;;;;;;;21.08;5.07;;;15.30;79.60;;;;;;10482498;28;20102;-27
2022/12/24 23:28:45;;;;;;;5.63;2.87;;;15.10;80.70;;;;;;10498010;28;20049;-27
2022/12/24 23:33:48;;;;;;;7.13;2.50;;;15.40;80.20;;;;;;10487628;28;20048;-25
2022/12/24 23:38:52;;;;;;;5.63;2.05;;;14.80;84.30;;;;;;10491172;28;20068;-26
2022/12/24 23:43:54;;;;;;;7.07;2.70;;;14.90;84.00;;;;;;10464823;28;20060;-27
2022/12/24 23:48:58;;;;;;;12.33;3.13;;;14.80;84.60;;;;;;10468791;28;20556;-25
2022/12/24 23:54:00;;;;;;;13.50;4.70;;;13.90;93.10;;;;;;10469456;28;20467;-26
2022/12/24 23:59:02;;;;;;;6.57;3.23;;;13.20;95.80;;;;;;10483338;28;20056;-25
